createdAt,value
2023-04-16T00:04:59.794Z,8.01
2023-04-16T00:10:01.825Z,7.98
2023-04-16T00:15:04.160Z,7.97
2023-04-16T00:20:06.586Z,7.97
2023-04-16T00:25:09.106Z,7.95
2023-04-16T00:30:11.147Z,7.93
2023-04-16T00:35:12.665Z,7.93
2023-04-16T00:40:14.183Z,7.90
2023-04-16T00:45:16.009Z,7.86
2023-04-16T00:50:17.753Z,7.79
2023-04-16T00:55:21.393Z,7.72
2023-04-16T01:00:22.856Z,7.67
2023-04-16T01:05:24.264Z,7.65
2023-04-16T01:10:25.714Z,7.64
2023-04-16T01:15:27.331Z,7.66
2023-04-16T01:20:29.545Z,7.68
2023-04-16T01:25:31.081Z,7.70
2023-04-16T01:30:32.696Z,7.71
2023-04-16T01:35:34.251Z,7.67
2023-04-16T01:40:37.843Z,7.68
2023-04-16T01:45:39.353Z,7.69
2023-04-16T01:50:41.596Z,7.68
2023-04-16T01:55:43.072Z,7.69
2023-04-16T02:00:44.651Z,7.70
2023-04-16T02:05:47.340Z,7.72
2023-04-16T02:10:50.371Z,7.76
2023-04-16T02:15:52.826Z,7.75
2023-04-16T02:20:54.403Z,7.72
2023-04-16T02:25:55.937Z,7.73
2023-04-16T02:30:59.164Z,7.76
2023-04-16T02:36:00.746Z,7.76
2023-04-16T02:41:02.241Z,7.76
2023-04-16T02:46:04.098Z,7.75
2023-04-16T02:51:05.955Z,7.76
2023-04-16T02:56:07.788Z,7.75
2023-04-16T03:01:10.280Z,7.75
2023-04-16T03:06:11.786Z,7.70
2023-04-16T03:11:13.279Z,7.68
2023-04-16T03:16:14.822Z,7.68
2023-04-16T03:21:16.432Z,7.69
2023-04-16T03:26:17.907Z,7.69
2023-04-16T03:31:19.481Z,7.67
2023-04-16T03:36:21.103Z,7.64
2023-04-16T03:41:22.605Z,7.66
2023-04-16T03:46:24.084Z,7.66
2023-04-16T03:51:26.363Z,7.66
2023-04-16T03:56:28.000Z,7.64
2023-04-16T04:01:29.486Z,7.66
2023-04-16T04:06:31.115Z,7.69
2023-04-16T04:11:33.116Z,7.71
2023-04-16T04:16:35.410Z,7.71
2023-04-16T04:21:36.915Z,7.72
2023-04-16T04:26:38.417Z,7.74
2023-04-16T04:31:40.038Z,7.78
2023-04-16T04:36:41.589Z,7.80
2023-04-16T04:41:43.208Z,7.83
2023-04-16T04:46:44.750Z,7.90
2023-04-16T04:51:46.456Z,7.95
2023-04-16T04:56:47.951Z,8.00
2023-04-16T05:01:50.158Z,8.02
2023-04-16T05:06:51.667Z,8.04
2023-04-16T05:11:53.234Z,8.11
2023-04-16T05:16:54.747Z,8.18
2023-04-16T05:21:56.319Z,8.25
2023-04-16T05:26:58.097Z,8.36
2023-04-16T05:31:59.638Z,8.47
2023-04-16T05:37:01.498Z,8.56
2023-04-16T05:42:03.000Z,8.74
2023-04-16T05:47:04.499Z,8.95
2023-04-16T05:52:07.457Z,9.12
2023-04-16T05:57:08.981Z,9.24
2023-04-16T06:02:10.572Z,9.35
2023-04-16T06:07:12.225Z,9.57
2023-04-16T06:12:13.747Z,9.67
2023-04-16T06:17:15.581Z,9.83
2023-04-16T06:22:17.104Z,9.94
2023-04-16T06:27:18.569Z,10.11
2023-04-16T06:32:20.104Z,10.21
2023-04-16T06:37:21.850Z,10.22
2023-04-16T06:42:23.595Z,10.25
2023-04-16T06:47:25.184Z,10.25
2023-04-16T06:52:27.050Z,10.24
2023-04-16T06:57:28.561Z,10.21
2023-04-16T07:02:30.230Z,10.32
2023-04-16T07:07:32.576Z,10.49
2023-04-16T07:12:34.067Z,10.53
2023-04-16T07:17:35.734Z,10.59
2023-04-16T07:22:37.358Z,10.59
2023-04-16T07:27:38.858Z,10.67
2023-04-16T07:32:40.388Z,10.73
2023-04-16T07:37:42.005Z,10.69
2023-04-16T07:42:43.647Z,10.77
2023-04-16T07:47:45.883Z,10.82
2023-04-16T07:52:47.484Z,10.94
2023-04-16T07:57:48.979Z,10.93
2023-04-16T08:02:50.890Z,10.92
2023-04-16T08:07:52.726Z,10.99
2023-04-16T08:12:54.214Z,11.05
2023-04-16T08:17:55.735Z,11.07
2023-04-16T08:22:57.364Z,11.12
2023-04-16T08:27:58.865Z,11.31
2023-04-16T08:33:00.487Z,11.37
2023-04-16T08:38:04.802Z,11.54
2023-04-16T08:43:12.432Z,11.77
2023-04-16T08:48:15.150Z,12.06
2023-04-16T08:53:19.348Z,12.25
2023-04-16T08:58:22.970Z,12.62
2023-04-16T09:03:24.843Z,12.97
2023-04-16T09:08:27.678Z,13.08
2023-04-16T09:13:29.179Z,13.15
2023-04-16T09:18:31.171Z,13.16
2023-04-16T09:23:32.718Z,13.17
2023-04-16T09:28:44.661Z,13.21
2023-04-16T09:34:02.929Z,13.25
2023-04-16T09:39:04.532Z,13.25
2023-04-16T09:44:06.180Z,13.56
2023-04-16T09:49:15.525Z,13.53
2023-04-16T09:54:17.063Z,13.29
2023-04-16T09:59:18.581Z,13.42
2023-04-16T10:04:20.574Z,13.51
2023-04-16T10:09:22.901Z,13.83
2023-04-16T10:14:24.531Z,13.82
2023-04-16T10:19:27.519Z,14.05
2023-04-16T10:24:33.821Z,14.19
2023-04-16T10:29:36.732Z,14.00
2023-04-16T10:34:38.329Z,13.89
2023-04-16T10:39:39.868Z,14.15
2023-04-16T10:44:44.293Z,14.37
2023-04-16T10:49:48.156Z,14.62
2023-04-16T10:54:50.572Z,14.72
2023-04-16T10:59:52.363Z,14.89
2023-04-16T11:04:57.234Z,15.14
2023-04-16T11:10:06.708Z,15.43
2023-04-16T11:15:13.221Z,15.19
2023-04-16T11:20:27.901Z,14.77
2023-04-16T11:25:30.325Z,14.45
2023-04-16T11:30:38.382Z,14.43
2023-04-16T11:35:40.189Z,14.59
2023-04-16T11:40:42.309Z,14.75
2023-04-16T11:46:00.022Z,14.91
2023-04-16T11:51:01.800Z,14.89
2023-04-16T11:56:04.778Z,14.88
2023-04-16T12:01:08.056Z,14.92
2023-04-16T12:06:10.506Z,15.04
2023-04-16T12:11:12.367Z,15.22
2023-04-16T12:16:20.099Z,15.42
2023-04-16T12:21:21.751Z,15.34
2023-04-16T12:26:25.437Z,15.30
2023-04-16T12:31:39.408Z,15.44
2023-04-16T12:36:42.493Z,15.60
2023-04-16T12:41:44.987Z,15.71
2023-04-16T12:46:46.813Z,15.82
2023-04-16T12:51:49.160Z,15.92
2023-04-16T12:56:50.673Z,15.57
2023-04-16T13:01:52.277Z,15.25
2023-04-16T13:06:54.054Z,15.15
2023-04-16T13:11:56.038Z,15.21
2023-04-16T13:16:57.566Z,15.30
2023-04-16T13:21:59.559Z,15.42
2023-04-16T13:27:01.150Z,15.34
2023-04-16T13:32:03.632Z,15.15
2023-04-16T13:37:05.178Z,15.14
2023-04-16T13:42:06.815Z,14.99
2023-04-16T13:47:08.722Z,15.06
2023-04-16T13:52:10.205Z,15.09
2023-04-16T13:57:12.608Z,15.00
2023-04-16T14:02:14.707Z,14.94
2023-04-16T14:07:16.311Z,14.97
2023-04-16T14:12:17.944Z,15.07
2023-04-16T14:17:19.531Z,15.30
2023-04-16T14:22:21.361Z,15.74
2023-04-16T14:27:23.041Z,16.00
2023-04-16T14:32:24.610Z,16.08
2023-04-16T14:37:26.784Z,16.28
2023-04-16T14:42:28.478Z,16.27
2023-04-16T14:47:30.099Z,16.14
2023-04-16T14:52:32.376Z,16.01
2023-04-16T14:57:34.150Z,15.79
2023-04-16T15:02:36.258Z,15.72
2023-04-16T15:07:37.988Z,15.80
2023-04-16T15:12:39.955Z,15.88
2023-04-16T15:17:43.659Z,15.98
2023-04-16T15:22:45.179Z,16.11
2023-04-16T15:27:46.705Z,16.13
2023-04-16T15:32:48.287Z,16.24
2023-04-16T15:37:52.329Z,16.04
2023-04-16T15:42:55.948Z,15.77
2023-04-16T15:47:57.746Z,15.58
2023-04-16T15:52:59.378Z,15.52
2023-04-16T15:58:01.063Z,15.41
2023-04-16T16:03:02.947Z,15.47
2023-04-16T16:08:04.849Z,15.47
2023-04-16T16:13:08.047Z,15.29
2023-04-16T16:18:10.103Z,15.02
2023-04-16T16:23:11.926Z,14.73
2023-04-16T16:28:13.418Z,14.40
2023-04-16T16:33:15.111Z,14.17
2023-04-16T16:38:16.662Z,13.99
2023-04-16T16:43:18.365Z,13.87
2023-04-16T16:48:19.871Z,13.81
2023-04-16T16:53:21.380Z,13.72
2023-04-16T16:58:22.917Z,13.57
2023-04-16T17:03:24.452Z,13.46
2023-04-16T17:08:26.063Z,13.39
2023-04-16T17:13:27.629Z,13.32
2023-04-16T17:18:29.128Z,13.22
2023-04-16T17:23:30.893Z,13.12
2023-04-16T17:28:32.426Z,13.06
2023-04-16T17:33:34.583Z,12.98
2023-04-16T17:38:36.117Z,12.91
2023-04-16T17:43:37.718Z,12.83
2023-04-16T17:48:39.201Z,12.81
2023-04-16T17:53:42.719Z,12.79
2023-04-16T17:58:44.568Z,12.70
2023-04-16T18:03:46.402Z,12.52
2023-04-16T18:08:48.186Z,12.35
2023-04-16T18:13:49.764Z,12.22
2023-04-16T18:18:51.241Z,12.21
2023-04-16T18:23:52.722Z,12.11
2023-04-16T18:28:54.253Z,12.03
2023-04-16T18:33:58.109Z,11.94
2023-04-16T18:39:02.442Z,11.81
2023-04-16T18:44:17.797Z,11.79
2023-04-16T18:49:19.265Z,11.72
2023-04-16T18:54:21.076Z,11.59
2023-04-16T18:59:22.582Z,11.43
2023-04-16T19:04:24.119Z,11.30
2023-04-16T19:09:27.078Z,11.27
2023-04-16T19:14:28.552Z,11.17
2023-04-16T19:19:30.159Z,11.12
2023-04-16T19:24:34.056Z,11.13
2023-04-16T19:29:35.949Z,11.11
2023-04-16T19:34:37.468Z,11.06
2023-04-16T19:39:38.991Z,11.03
2023-04-16T19:44:40.841Z,10.98
2023-04-16T19:49:43.686Z,10.96
2023-04-16T19:54:45.258Z,10.90
2023-04-16T19:59:46.780Z,10.85
2023-04-16T20:04:48.580Z,10.80
2023-04-16T20:09:50.124Z,10.84
2023-04-16T20:14:54.124Z,10.81
2023-04-16T20:20:00.904Z,10.73
2023-04-16T20:25:04.087Z,10.76
2023-04-16T20:30:06.559Z,10.76
2023-04-16T20:35:11.116Z,10.69
2023-04-16T20:40:15.020Z,10.60
2023-04-16T20:45:16.635Z,10.57
2023-04-16T20:50:18.251Z,10.55
2023-04-16T20:55:19.906Z,10.47
2023-04-16T21:00:27.842Z,10.37
2023-04-16T21:05:30.111Z,10.30
2023-04-16T21:10:31.597Z,10.24
2023-04-16T21:15:34.685Z,10.16
2023-04-16T21:20:36.349Z,10.13
2023-04-16T21:25:37.832Z,10.10
2023-04-16T21:30:39.780Z,10.03
2023-04-16T21:35:41.756Z,10.00
2023-04-16T21:40:43.256Z,9.95
2023-04-16T21:45:44.796Z,9.87
2023-04-16T21:50:46.277Z,9.78
2023-04-16T21:55:47.736Z,9.73
2023-04-16T22:00:49.270Z,9.73
2023-04-16T22:05:51.695Z,9.69
2023-04-16T22:10:59.751Z,9.63
2023-04-16T22:16:01.438Z,9.55
2023-04-16T22:21:03.764Z,9.50
2023-04-16T22:26:05.320Z,9.49
2023-04-16T22:31:07.083Z,9.37
2023-04-16T22:36:09.320Z,9.26
2023-04-16T22:41:10.962Z,9.21
2023-04-16T22:46:12.605Z,9.21
2023-04-16T22:51:14.198Z,9.17
2023-04-16T22:56:15.775Z,9.06
2023-04-16T23:01:17.589Z,8.97
2023-04-16T23:06:19.213Z,8.97
2023-04-16T23:11:20.900Z,8.99
2023-04-16T23:16:22.428Z,8.95
2023-04-16T23:21:24.019Z,8.87
2023-04-16T23:26:25.696Z,8.78
2023-04-16T23:31:27.202Z,8.78
2023-04-16T23:36:28.815Z,8.79
2023-04-16T23:41:30.500Z,8.84
2023-04-16T23:46:32.093Z,8.78
2023-04-16T23:51:33.572Z,8.70
2023-04-16T23:56:35.627Z,8.65
